sensor_id;sensor_type;location;lat;lon;timestamp;P1;durP1;ratioP1;P2;durP2;ratioP2
49890;SDS011;35780;55.568;37.492;2023-02-20T00:01:24;51.38;;;24.50;;
49890;SDS011;35780;55.568;37.492;2023-02-20T00:03:50;56.47;;;25.85;;
49890;SDS011;35780;55.568;37.492;2023-02-20T00:06:16;59.28;;;28.15;;
49890;SDS011;35780;55.568;37.492;2023-02-20T00:08:41;55.47;;;23.65;;
49890;SDS011;35780;55.568;37.492;2023-02-20T00:11:07;51.13;;;21.73;;
49890;SDS011;35780;55.568;37.492;2023-02-20T00:13:32;57.40;;;27.30;;
49890;SDS011;35780;55.568;37.492;2023-02-20T00:15:58;57.75;;;28.33;;
49890;SDS011;35780;55.568;37.492;2023-02-20T00:18:24;53.47;;;26.33;;
49890;SDS011;35780;55.568;37.492;2023-02-20T00:20:49;59.05;;;25.13;;
49890;SDS011;35780;55.568;37.492;2023-02-20T00:23:15;64.65;;;27.23;;
49890;SDS011;35780;55.568;37.492;2023-02-20T00:25:40;62.50;;;27.05;;
49890;SDS011;35780;55.568;37.492;2023-02-20T00:28:06;57.05;;;26.83;;
49890;SDS011;35780;55.568;37.492;2023-02-20T00:30:31;61.25;;;28.33;;
49890;SDS011;35780;55.568;37.492;2023-02-20T00:32:57;57.55;;;27.20;;
49890;SDS011;35780;55.568;37.492;2023-02-20T00:35:24;57.95;;;28.17;;
49890;SDS011;35780;55.568;37.492;2023-02-20T00:37:50;65.38;;;29.70;;
49890;SDS011;35780;55.568;37.492;2023-02-20T00:40:17;58.20;;;27.65;;
49890;SDS011;35780;55.568;37.492;2023-02-20T00:42:44;57.17;;;27.77;;
49890;SDS011;35780;55.568;37.492;2023-02-20T00:45:10;62.03;;;28.95;;
49890;SDS011;35780;55.568;37.492;2023-02-20T00:47:36;60.72;;;27.15;;
49890;SDS011;35780;55.568;37.492;2023-02-20T00:50:02;58.40;;;25.63;;
49890;SDS011;35780;55.568;37.492;2023-02-20T00:52:29;57.53;;;28.42;;
49890;SDS011;35780;55.568;37.492;2023-02-20T00:54:54;56.47;;;26.67;;
49890;SDS011;35780;55.568;37.492;2023-02-20T00:57:20;50.08;;;23.33;;
49890;SDS011;35780;55.568;37.492;2023-02-20T00:59:45;66.15;;;29.83;;
49890;SDS011;35780;55.568;37.492;2023-02-20T01:02:12;51.40;;;22.38;;
49890;SDS011;35780;55.568;37.492;2023-02-20T01:04:38;52.70;;;23.92;;
49890;SDS011;35780;55.568;37.492;2023-02-20T01:07:04;53.42;;;24.30;;
49890;SDS011;35780;55.568;37.492;2023-02-20T01:09:30;57.53;;;26.33;;
49890;SDS011;35780;55.568;37.492;2023-02-20T01:11:55;47.03;;;23.33;;
49890;SDS011;35780;55.568;37.492;2023-02-20T01:14:21;56.08;;;26.15;;
49890;SDS011;35780;55.568;37.492;2023-02-20T01:16:48;56.97;;;27.63;;
49890;SDS011;35780;55.568;37.492;2023-02-20T01:19:15;57.03;;;27.98;;
49890;SDS011;35780;55.568;37.492;2023-02-20T01:21:42;56.40;;;28.40;;
49890;SDS011;35780;55.568;37.492;2023-02-20T01:24:09;59.40;;;27.63;;
49890;SDS011;35780;55.568;37.492;2023-02-20T01:26:35;59.53;;;28.45;;
49890;SDS011;35780;55.568;37.492;2023-02-20T01:29:01;48.88;;;24.48;;
49890;SDS011;35780;55.568;37.492;2023-02-20T01:31:27;51.28;;;25.80;;
49890;SDS011;35780;55.568;37.492;2023-02-20T01:33:53;58.85;;;27.15;;
49890;SDS011;35780;55.568;37.492;2023-02-20T01:36:19;61.42;;;27.58;;
49890;SDS011;35780;55.568;37.492;2023-02-20T01:38:45;57.65;;;26.75;;
49890;SDS011;35780;55.568;37.492;2023-02-20T01:41:12;63.10;;;29.02;;
49890;SDS011;35780;55.568;37.492;2023-02-20T01:43:39;57.13;;;27.33;;
49890;SDS011;35780;55.568;37.492;2023-02-20T01:49:03;58.65;;;28.95;;
49890;SDS011;35780;55.568;37.492;2023-02-20T01:51:31;58.10;;;26.63;;
49890;SDS011;35780;55.568;37.492;2023-02-20T01:53:58;57.40;;;26.83;;
49890;SDS011;35780;55.568;37.492;2023-02-20T01:56:24;58.22;;;28.23;;
49890;SDS011;35780;55.568;37.492;2023-02-20T01:58:50;58.45;;;28.48;;
49890;SDS011;35780;55.568;37.492;2023-02-20T02:01:15;55.05;;;24.83;;
49890;SDS011;35780;55.568;37.492;2023-02-20T02:03:42;63.42;;;28.77;;
49890;SDS011;35780;55.568;37.492;2023-02-20T02:06:10;63.72;;;29.88;;
49890;SDS011;35780;55.568;37.492;2023-02-20T02:08:37;66.15;;;31.48;;
49890;SDS011;35780;55.568;37.492;2023-02-20T02:11:08;56.78;;;27.58;;
49890;SDS011;35780;55.568;37.492;2023-02-20T02:13:38;64.03;;;28.25;;
49890;SDS011;35780;55.568;37.492;2023-02-20T02:32:56;50.97;;;22.52;;
49890;SDS011;35780;55.568;37.492;2023-02-20T02:40:58;58.17;;;27.42;;
49890;SDS011;35780;55.568;37.492;2023-02-20T02:46:08;61.00;;;30.80;;
49890;SDS011;35780;55.568;37.492;2023-02-20T02:49:09;52.75;;;21.95;;
49890;SDS011;35780;55.568;37.492;2023-02-20T02:51:35;62.97;;;28.35;;
49890;SDS011;35780;55.568;37.492;2023-02-20T02:56:48;60.13;;;27.55;;
49890;SDS011;35780;55.568;37.492;2023-02-20T02:59:16;59.63;;;27.48;;
49890;SDS011;35780;55.568;37.492;2023-02-20T03:04:14;55.22;;;25.05;;
49890;SDS011;35780;55.568;37.492;2023-02-20T03:06:47;58.00;;;24.58;;
49890;SDS011;35780;55.568;37.492;2023-02-20T03:09:19;61.42;;;27.73;;
49890;SDS011;35780;55.568;37.492;2023-02-20T03:11:52;49.25;;;23.83;;
49890;SDS011;35780;55.568;37.492;2023-02-20T03:14:20;65.95;;;26.73;;
49890;SDS011;35780;55.568;37.492;2023-02-20T03:20:12;50.97;;;22.77;;
49890;SDS011;35780;55.568;37.492;2023-02-20T03:22:47;49.83;;;21.23;;
49890;SDS011;35780;55.568;37.492;2023-02-20T03:30:17;46.38;;;21.23;;
49890;SDS011;35780;55.568;37.492;2023-02-20T03:32:47;44.05;;;18.58;;
49890;SDS011;35780;55.568;37.492;2023-02-20T03:35:37;60.33;;;25.75;;
49890;SDS011;35780;55.568;37.492;2023-02-20T03:38:22;52.78;;;24.20;;
49890;SDS011;35780;55.568;37.492;2023-02-20T03:41:09;50.72;;;21.92;;
49890;SDS011;35780;55.568;37.492;2023-02-20T03:43:56;41.50;;;17.60;;
49890;SDS011;35780;55.568;37.492;2023-02-20T03:46:26;51.08;;;22.58;;
49890;SDS011;35780;55.568;37.492;2023-02-20T03:48:52;56.80;;;24.20;;
49890;SDS011;35780;55.568;37.492;2023-02-20T03:51:27;50.33;;;22.17;;
49890;SDS011;35780;55.568;37.492;2023-02-20T03:53:53;64.30;;;28.25;;
49890;SDS011;35780;55.568;37.492;2023-02-20T03:56:23;44.50;;;22.73;;
49890;SDS011;35780;55.568;37.492;2023-02-20T04:01:36;56.05;;;25.02;;
49890;SDS011;35780;55.568;37.492;2023-02-20T04:04:04;61.95;;;26.17;;
49890;SDS011;35780;55.568;37.492;2023-02-20T04:06:31;54.58;;;26.02;;
49890;SDS011;35780;55.568;37.492;2023-02-20T04:09:06;58.55;;;28.63;;
49890;SDS011;35780;55.568;37.492;2023-02-20T04:11:38;57.45;;;26.10;;
49890;SDS011;35780;55.568;37.492;2023-02-20T04:14:08;48.20;;;23.45;;
49890;SDS011;35780;55.568;37.492;2023-02-20T04:16:38;44.72;;;23.80;;
49890;SDS011;35780;55.568;37.492;2023-02-20T04:19:08;56.80;;;25.08;;
49890;SDS011;35780;55.568;37.492;2023-02-20T04:21:44;51.78;;;25.92;;
49890;SDS011;35780;55.568;37.492;2023-02-20T04:24:15;45.15;;;21.33;;
49890;SDS011;35780;55.568;37.492;2023-02-20T04:26:45;40.38;;;21.80;;
49890;SDS011;35780;55.568;37.492;2023-02-20T04:29:11;40.85;;;18.10;;
49890;SDS011;35780;55.568;37.492;2023-02-20T04:31:40;47.42;;;22.15;;
49890;SDS011;35780;55.568;37.492;2023-02-20T04:34:06;45.95;;;21.77;;
49890;SDS011;35780;55.568;37.492;2023-02-20T04:36:33;42.33;;;17.67;;
49890;SDS011;35780;55.568;37.492;2023-02-20T04:39:00;35.53;;;17.02;;
49890;SDS011;35780;55.568;37.492;2023-02-20T04:41:25;41.03;;;20.33;;
49890;SDS011;35780;55.568;37.492;2023-02-20T04:43:52;41.17;;;17.73;;
49890;SDS011;35780;55.568;37.492;2023-02-20T04:46:41;40.85;;;18.13;;
49890;SDS011;35780;55.568;37.492;2023-02-20T04:49:06;47.63;;;19.98;;
49890;SDS011;35780;55.568;37.492;2023-02-20T04:51:32;49.53;;;19.85;;
49890;SDS011;35780;55.568;37.492;2023-02-20T04:53:59;37.85;;;19.23;;
49890;SDS011;35780;55.568;37.492;2023-02-20T04:56:24;43.47;;;21.23;;
49890;SDS011;35780;55.568;37.492;2023-02-20T04:58:50;49.90;;;22.98;;
49890;SDS011;35780;55.568;37.492;2023-02-20T05:01:16;35.15;;;16.05;;
49890;SDS011;35780;55.568;37.492;2023-02-20T05:03:41;36.67;;;15.35;;
49890;SDS011;35780;55.568;37.492;2023-02-20T05:06:07;30.40;;;13.23;;
49890;SDS011;35780;55.568;37.492;2023-02-20T05:08:33;43.15;;;21.05;;
49890;SDS011;35780;55.568;37.492;2023-02-20T05:10:58;38.22;;;16.65;;
49890;SDS011;35780;55.568;37.492;2023-02-20T05:13:24;30.45;;;13.70;;
49890;SDS011;35780;55.568;37.492;2023-02-20T05:15:50;44.67;;;21.58;;
49890;SDS011;35780;55.568;37.492;2023-02-20T05:18:26;40.45;;;18.58;;
49890;SDS011;35780;55.568;37.492;2023-02-20T05:20:54;39.58;;;20.63;;
49890;SDS011;35780;55.568;37.492;2023-02-20T05:23:40;29.25;;;12.73;;
49890;SDS011;35780;55.568;37.492;2023-02-20T05:26:09;36.90;;;18.15;;
49890;SDS011;35780;55.568;37.492;2023-02-20T05:28:36;32.53;;;14.43;;
49890;SDS011;35780;55.568;37.492;2023-02-20T05:31:05;38.88;;;17.17;;
49890;SDS011;35780;55.568;37.492;2023-02-20T05:33:32;41.15;;;19.60;;
49890;SDS011;35780;55.568;37.492;2023-02-20T05:35:58;38.17;;;19.02;;
49890;SDS011;35780;55.568;37.492;2023-02-20T05:38:24;46.95;;;20.67;;
49890;SDS011;35780;55.568;37.492;2023-02-20T05:40:49;40.72;;;19.83;;
49890;SDS011;35780;55.568;37.492;2023-02-20T05:43:15;40.78;;;19.02;;
49890;SDS011;35780;55.568;37.492;2023-02-20T05:45:41;41.55;;;19.20;;
49890;SDS011;35780;55.568;37.492;2023-02-20T05:48:07;47.45;;;20.27;;
49890;SDS011;35780;55.568;37.492;2023-02-20T05:50:32;41.03;;;20.42;;
49890;SDS011;35780;55.568;37.492;2023-02-20T05:52:58;38.55;;;17.60;;
49890;SDS011;35780;55.568;37.492;2023-02-20T05:55:23;41.85;;;19.60;;
49890;SDS011;35780;55.568;37.492;2023-02-20T05:57:49;42.60;;;22.58;;
49890;SDS011;35780;55.568;37.492;2023-02-20T06:00:14;36.47;;;19.55;;
49890;SDS011;35780;55.568;37.492;2023-02-20T06:06:21;38.03;;;20.10;;
49890;SDS011;35780;55.568;37.492;2023-02-20T06:08:47;38.00;;;20.75;;
49890;SDS011;35780;55.568;37.492;2023-02-20T06:11:17;33.72;;;15.50;;
49890;SDS011;35780;55.568;37.492;2023-02-20T06:13:43;38.17;;;18.42;;
49890;SDS011;35780;55.568;37.492;2023-02-20T06:16:10;37.38;;;19.05;;
49890;SDS011;35780;55.568;37.492;2023-02-20T06:18:39;25.23;;;12.38;;
49890;SDS011;35780;55.568;37.492;2023-02-20T06:21:10;27.27;;;11.85;;
49890;SDS011;35780;55.568;37.492;2023-02-20T06:23:41;31.55;;;15.68;;
49890;SDS011;35780;55.568;37.492;2023-02-20T06:26:10;35.03;;;18.50;;
49890;SDS011;35780;55.568;37.492;2023-02-20T06:28:36;29.75;;;12.93;;
49890;SDS011;35780;55.568;37.492;2023-02-20T06:31:03;41.33;;;18.77;;
49890;SDS011;35780;55.568;37.492;2023-02-20T06:33:29;37.03;;;19.58;;
49890;SDS011;35780;55.568;37.492;2023-02-20T06:35:55;32.92;;;18.00;;
49890;SDS011;35780;55.568;37.492;2023-02-20T06:38:21;32.00;;;16.23;;
49890;SDS011;35780;55.568;37.492;2023-02-20T06:40:47;31.25;;;17.10;;
49890;SDS011;35780;55.568;37.492;2023-02-20T06:43:12;34.08;;;18.33;;
49890;SDS011;35780;55.568;37.492;2023-02-20T06:45:38;37.42;;;19.02;;
49890;SDS011;35780;55.568;37.492;2023-02-20T06:48:04;36.80;;;18.13;;
49890;SDS011;35780;55.568;37.492;2023-02-20T06:50:32;33.53;;;17.33;;
49890;SDS011;35780;55.568;37.492;2023-02-20T06:52:58;36.40;;;17.48;;
49890;SDS011;35780;55.568;37.492;2023-02-20T06:55:24;33.95;;;16.98;;
49890;SDS011;35780;55.568;37.492;2023-02-20T06:57:50;37.08;;;18.73;;
49890;SDS011;35780;55.568;37.492;2023-02-20T07:00:16;33.92;;;18.15;;
49890;SDS011;35780;55.568;37.492;2023-02-20T07:02:42;33.60;;;15.68;;
49890;SDS011;35780;55.568;37.492;2023-02-20T07:05:07;35.72;;;16.60;;
49890;SDS011;35780;55.568;37.492;2023-02-20T07:07:34;30.50;;;15.82;;
49890;SDS011;35780;55.568;37.492;2023-02-20T07:10:03;35.28;;;18.17;;
49890;SDS011;35780;55.568;37.492;2023-02-20T07:12:31;38.22;;;21.83;;
49890;SDS011;35780;55.568;37.492;2023-02-20T07:14:59;37.15;;;17.67;;
49890;SDS011;35780;55.568;37.492;2023-02-20T07:17:25;39.05;;;17.67;;
49890;SDS011;35780;55.568;37.492;2023-02-20T07:19:50;35.80;;;17.05;;
49890;SDS011;35780;55.568;37.492;2023-02-20T07:22:17;32.42;;;17.17;;
49890;SDS011;35780;55.568;37.492;2023-02-20T07:24:43;30.88;;;15.07;;
49890;SDS011;35780;55.568;37.492;2023-02-20T07:27:08;43.83;;;20.08;;
49890;SDS011;35780;55.568;37.492;2023-02-20T07:29:38;31.98;;;16.27;;
49890;SDS011;35780;55.568;37.492;2023-02-20T07:32:05;39.45;;;21.20;;
49890;SDS011;35780;55.568;37.492;2023-02-20T07:34:33;35.00;;;19.58;;
49890;SDS011;35780;55.568;37.492;2023-02-20T07:36:59;38.67;;;20.25;;
49890;SDS011;35780;55.568;37.492;2023-02-20T07:39:25;34.92;;;19.25;;
49890;SDS011;35780;55.568;37.492;2023-02-20T07:41:52;31.88;;;17.10;;
49890;SDS011;35780;55.568;37.492;2023-02-20T07:44:18;33.05;;;17.83;;
49890;SDS011;35780;55.568;37.492;2023-02-20T07:46:43;32.80;;;17.35;;
49890;SDS011;35780;55.568;37.492;2023-02-20T07:49:10;36.25;;;19.65;;
49890;SDS011;35780;55.568;37.492;2023-02-20T07:51:35;37.17;;;18.67;;
49890;SDS011;35780;55.568;37.492;2023-02-20T07:54:02;35.42;;;18.52;;
49890;SDS011;35780;55.568;37.492;2023-02-20T07:56:28;36.25;;;17.42;;
49890;SDS011;35780;55.568;37.492;2023-02-20T07:58:57;38.20;;;18.05;;
49890;SDS011;35780;55.568;37.492;2023-02-20T08:01:23;39.35;;;19.55;;
49890;SDS011;35780;55.568;37.492;2023-02-20T08:03:52;41.67;;;22.40;;
49890;SDS011;35780;55.568;37.492;2023-02-20T08:06:18;43.08;;;18.52;;
49890;SDS011;35780;55.568;37.492;2023-02-20T08:08:50;38.47;;;19.45;;
49890;SDS011;35780;55.568;37.492;2023-02-20T08:11:17;38.00;;;20.45;;
49890;SDS011;35780;55.568;37.492;2023-02-20T08:13:43;40.33;;;21.40;;
49890;SDS011;35780;55.568;37.492;2023-02-20T08:16:09;38.17;;;21.42;;
49890;SDS011;35780;55.568;37.492;2023-02-20T08:18:35;43.95;;;20.95;;
49890;SDS011;35780;55.568;37.492;2023-02-20T08:21:00;38.50;;;21.65;;
49890;SDS011;35780;55.568;37.492;2023-02-20T08:23:26;42.90;;;20.52;;
49890;SDS011;35780;55.568;37.492;2023-02-20T08:25:53;33.92;;;21.05;;
49890;SDS011;35780;55.568;37.492;2023-02-20T08:28:19;39.30;;;21.13;;
49890;SDS011;35780;55.568;37.492;2023-02-20T08:30:45;47.25;;;23.85;;
49890;SDS011;35780;55.568;37.492;2023-02-20T08:33:11;40.75;;;22.65;;
49890;SDS011;35780;55.568;37.492;2023-02-20T08:35:37;39.50;;;21.35;;
49890;SDS011;35780;55.568;37.492;2023-02-20T08:38:06;41.95;;;22.15;;
49890;SDS011;35780;55.568;37.492;2023-02-20T08:40:33;42.70;;;23.58;;
49890;SDS011;35780;55.568;37.492;2023-02-20T08:42:59;45.80;;;24.20;;
49890;SDS011;35780;55.568;37.492;2023-02-20T08:45:26;43.78;;;23.67;;
49890;SDS011;35780;55.568;37.492;2023-02-20T08:47:55;47.25;;;24.08;;
49890;SDS011;35780;55.568;37.492;2023-02-20T08:50:24;40.97;;;22.70;;
49890;SDS011;35780;55.568;37.492;2023-02-20T08:52:49;39.67;;;21.13;;
49890;SDS011;35780;55.568;37.492;2023-02-20T08:55:15;45.67;;;27.25;;
49890;SDS011;35780;55.568;37.492;2023-02-20T08:57:41;41.70;;;23.63;;
49890;SDS011;35780;55.568;37.492;2023-02-20T09:00:09;40.50;;;24.42;;
49890;SDS011;35780;55.568;37.492;2023-02-20T09:02:35;43.40;;;23.88;;
49890;SDS011;35780;55.568;37.492;2023-02-20T09:05:02;42.60;;;24.40;;
49890;SDS011;35780;55.568;37.492;2023-02-20T09:07:29;41.00;;;24.23;;
49890;SDS011;35780;55.568;37.492;2023-02-20T09:09:55;45.92;;;24.40;;
49890;SDS011;35780;55.568;37.492;2023-02-20T09:12:20;41.03;;;22.65;;
49890;SDS011;35780;55.568;37.492;2023-02-20T09:14:46;40.38;;;24.05;;
49890;SDS011;35780;55.568;37.492;2023-02-20T09:17:12;42.08;;;23.83;;
49890;SDS011;35780;55.568;37.492;2023-02-20T09:19:38;39.17;;;22.70;;
49890;SDS011;35780;55.568;37.492;2023-02-20T09:22:03;42.22;;;23.80;;
49890;SDS011;35780;55.568;37.492;2023-02-20T09:24:31;40.20;;;23.05;;
49890;SDS011;35780;55.568;37.492;2023-02-20T09:27:02;43.03;;;22.48;;
49890;SDS011;35780;55.568;37.492;2023-02-20T09:29:33;47.53;;;26.70;;
49890;SDS011;35780;55.568;37.492;2023-02-20T09:32:02;37.13;;;20.85;;
49890;SDS011;35780;55.568;37.492;2023-02-20T09:34:27;37.72;;;20.00;;
49890;SDS011;35780;55.568;37.492;2023-02-20T09:36:56;40.75;;;22.60;;
49890;SDS011;35780;55.568;37.492;2023-02-20T09:39:22;41.65;;;24.92;;
49890;SDS011;35780;55.568;37.492;2023-02-20T09:47:06;37.35;;;21.63;;
49890;SDS011;35780;55.568;37.492;2023-02-20T09:49:39;45.05;;;25.20;;
49890;SDS011;35780;55.568;37.492;2023-02-20T09:52:05;40.72;;;22.83;;
49890;SDS011;35780;55.568;37.492;2023-02-20T09:54:36;46.53;;;24.02;;
49890;SDS011;35780;55.568;37.492;2023-02-20T09:57:05;41.22;;;23.20;;
49890;SDS011;35780;55.568;37.492;2023-02-20T09:59:42;44.67;;;24.65;;
49890;SDS011;35780;55.568;37.492;2023-02-20T10:05:13;44.67;;;24.00;;
49890;SDS011;35780;55.568;37.492;2023-02-20T10:07:46;43.78;;;24.63;;
49890;SDS011;35780;55.568;37.492;2023-02-20T10:10:21;43.83;;;24.70;;
49890;SDS011;35780;55.568;37.492;2023-02-20T10:20:57;55.10;;;22.75;;
49890;SDS011;35780;55.568;37.492;2023-02-20T10:26:07;43.15;;;23.70;;
49890;SDS011;35780;55.568;37.492;2023-02-20T10:28:58;41.35;;;23.70;;
49890;SDS011;35780;55.568;37.492;2023-02-20T10:31:35;39.60;;;21.83;;
49890;SDS011;35780;55.568;37.492;2023-02-20T10:34:07;44.95;;;22.63;;
49890;SDS011;35780;55.568;37.492;2023-02-20T10:36:38;46.17;;;22.77;;
49890;SDS011;35780;55.568;37.492;2023-02-20T10:39:06;42.45;;;20.60;;
49890;SDS011;35780;55.568;37.492;2023-02-20T10:46:51;43.35;;;23.67;;
49890;SDS011;35780;55.568;37.492;2023-02-20T10:49:34;41.17;;;22.08;;
49890;SDS011;35780;55.568;37.492;2023-02-20T10:52:02;40.55;;;22.48;;
49890;SDS011;35780;55.568;37.492;2023-02-20T10:54:32;47.25;;;23.95;;
49890;SDS011;35780;55.568;37.492;2023-02-20T10:57:05;48.42;;;24.38;;
49890;SDS011;35780;55.568;37.492;2023-02-20T10:59:37;41.47;;;23.15;;
49890;SDS011;35780;55.568;37.492;2023-02-20T11:02:17;38.80;;;22.80;;
49890;SDS011;35780;55.568;37.492;2023-02-20T11:04:47;42.22;;;22.13;;
49890;SDS011;35780;55.568;37.492;2023-02-20T11:07:17;36.47;;;19.20;;
49890;SDS011;35780;55.568;37.492;2023-02-20T11:09:44;37.13;;;22.67;;
49890;SDS011;35780;55.568;37.492;2023-02-20T11:12:43;50.90;;;23.23;;
49890;SDS011;35780;55.568;37.492;2023-02-20T11:15:05;39.83;;;23.65;;
49890;SDS011;35780;55.568;37.492;2023-02-20T11:17:33;43.05;;;23.33;;
49890;SDS011;35780;55.568;37.492;2023-02-20T11:20:00;37.97;;;20.27;;
49890;SDS011;35780;55.568;37.492;2023-02-20T11:27:41;38.75;;;22.10;;
49890;SDS011;35780;55.568;37.492;2023-02-20T11:30:28;37.92;;;20.80;;
49890;SDS011;35780;55.568;37.492;2023-02-20T11:33:09;55.22;;;25.05;;
49890;SDS011;35780;55.568;37.492;2023-02-20T11:35:38;43.92;;;24.40;;
49890;SDS011;35780;55.568;37.492;2023-02-20T11:38:16;45.15;;;22.58;;
49890;SDS011;35780;55.568;37.492;2023-02-20T11:41:06;42.10;;;24.05;;
49890;SDS011;35780;55.568;37.492;2023-02-20T11:43:41;41.03;;;23.67;;
49890;SDS011;35780;55.568;37.492;2023-02-20T11:46:16;42.58;;;21.83;;
49890;SDS011;35780;55.568;37.492;2023-02-20T11:51:31;44.75;;;23.15;;
49890;SDS011;35780;55.568;37.492;2023-02-20T11:54:09;37.17;;;21.13;;
49890;SDS011;35780;55.568;37.492;2023-02-20T11:59:45;38.38;;;21.98;;
49890;SDS011;35780;55.568;37.492;2023-02-20T12:07:36;40.80;;;22.33;;
49890;SDS011;35780;55.568;37.492;2023-02-20T12:13:03;51.38;;;24.52;;
49890;SDS011;35780;55.568;37.492;2023-02-20T12:15:31;48.78;;;21.90;;
49890;SDS011;35780;55.568;37.492;2023-02-20T12:20:47;48.70;;;23.23;;
49890;SDS011;35780;55.568;37.492;2023-02-20T12:29:04;43.17;;;22.60;;
49890;SDS011;35780;55.568;37.492;2023-02-20T12:36:58;44.97;;;22.83;;
49890;SDS011;35780;55.568;37.492;2023-02-20T12:39:49;47.13;;;23.38;;
49890;SDS011;35780;55.568;37.492;2023-02-20T12:42:26;49.67;;;23.67;;
49890;SDS011;35780;55.568;37.492;2023-02-20T12:45:25;54.67;;;23.90;;
49890;SDS011;35780;55.568;37.492;2023-02-20T12:51:30;47.17;;;22.98;;
49890;SDS011;35780;55.568;37.492;2023-02-20T12:59:30;48.75;;;23.23;;
49890;SDS011;35780;55.568;37.492;2023-02-20T13:02:02;45.03;;;22.85;;
49890;SDS011;35780;55.568;37.492;2023-02-20T13:04:41;45.72;;;22.95;;
49890;SDS011;35780;55.568;37.492;2023-02-20T13:12:18;42.80;;;21.67;;
49890;SDS011;35780;55.568;37.492;2023-02-20T13:20:43;43.15;;;23.05;;
49890;SDS011;35780;55.568;37.492;2023-02-20T13:25:42;46.15;;;23.63;;
49890;SDS011;35780;55.568;37.492;2023-02-20T13:33:46;43.65;;;21.88;;
49890;SDS011;35780;55.568;37.492;2023-02-20T13:36:35;42.45;;;22.55;;
49890;SDS011;35780;55.568;37.492;2023-02-20T13:55:02;46.40;;;21.75;;
49890;SDS011;35780;55.568;37.492;2023-02-20T13:57:42;44.28;;;21.10;;
49890;SDS011;35780;55.568;37.492;2023-02-20T14:03:23;38.17;;;20.45;;
49890;SDS011;35780;55.568;37.492;2023-02-20T14:06:08;43.83;;;21.65;;
49890;SDS011;35780;55.568;37.492;2023-02-20T14:08:35;40.58;;;19.33;;
49890;SDS011;35780;55.568;37.492;2023-02-20T14:11:03;42.15;;;20.70;;
49890;SDS011;35780;55.568;37.492;2023-02-20T14:13:42;43.22;;;19.65;;
49890;SDS011;35780;55.568;37.492;2023-02-20T14:19:15;39.00;;;17.63;;
49890;SDS011;35780;55.568;37.492;2023-02-20T14:21:47;43.65;;;19.50;;
49890;SDS011;35780;55.568;37.492;2023-02-20T14:24:17;36.53;;;19.98;;
49890;SDS011;35780;55.568;37.492;2023-02-20T14:26:43;40.72;;;19.63;;
49890;SDS011;35780;55.568;37.492;2023-02-20T14:29:26;37.42;;;20.48;;
49890;SDS011;35780;55.568;37.492;2023-02-20T14:31:54;41.20;;;19.63;;
49890;SDS011;35780;55.568;37.492;2023-02-20T14:34:29;38.00;;;19.77;;
49890;SDS011;35780;55.568;37.492;2023-02-20T14:42:18;39.13;;;18.23;;
49890;SDS011;35780;55.568;37.492;2023-02-20T14:44:49;47.08;;;22.42;;
49890;SDS011;35780;55.568;37.492;2023-02-20T14:47:16;42.05;;;21.42;;
49890;SDS011;35780;55.568;37.492;2023-02-20T14:49:42;48.53;;;23.17;;
49890;SDS011;35780;55.568;37.492;2023-02-20T14:54:33;42.17;;;21.33;;
49890;SDS011;35780;55.568;37.492;2023-02-20T14:56:59;45.90;;;22.65;;
49890;SDS011;35780;55.568;37.492;2023-02-20T14:59:29;45.50;;;22.52;;
49890;SDS011;35780;55.568;37.492;2023-02-20T15:02:16;42.97;;;22.27;;
49890;SDS011;35780;55.568;37.492;2023-02-20T15:07:13;44.20;;;22.75;;
49890;SDS011;35780;55.568;37.492;2023-02-20T15:09:41;41.70;;;20.20;;
49890;SDS011;35780;55.568;37.492;2023-02-20T15:14:59;40.22;;;19.77;;
49890;SDS011;35780;55.568;37.492;2023-02-20T15:17:29;41.90;;;20.73;;
49890;SDS011;35780;55.568;37.492;2023-02-20T15:19:56;41.67;;;21.38;;
49890;SDS011;35780;55.568;37.492;2023-02-20T15:24:53;32.27;;;17.43;;
49890;SDS011;35780;55.568;37.492;2023-02-20T15:31:21;51.17;;;23.95;;
49890;SDS011;35780;55.568;37.492;2023-02-20T15:33:25;40.67;;;20.50;;
49890;SDS011;35780;55.568;37.492;2023-02-20T15:35:52;40.67;;;19.98;;
49890;SDS011;35780;55.568;37.492;2023-02-20T15:38:17;43.30;;;20.95;;
49890;SDS011;35780;55.568;37.492;2023-02-20T15:40:43;40.40;;;20.88;;
49890;SDS011;35780;55.568;37.492;2023-02-20T15:43:12;45.58;;;25.00;;
49890;SDS011;35780;55.568;37.492;2023-02-20T15:45:39;46.53;;;23.02;;
49890;SDS011;35780;55.568;37.492;2023-02-20T15:48:05;50.70;;;23.80;;
49890;SDS011;35780;55.568;37.492;2023-02-20T15:50:31;42.85;;;20.40;;
49890;SDS011;35780;55.568;37.492;2023-02-20T15:52:57;49.92;;;23.85;;
49890;SDS011;35780;55.568;37.492;2023-02-20T15:55:25;49.80;;;22.20;;
49890;SDS011;35780;55.568;37.492;2023-02-20T15:57:53;42.00;;;21.48;;
49890;SDS011;35780;55.568;37.492;2023-02-20T16:00:21;47.75;;;22.50;;
49890;SDS011;35780;55.568;37.492;2023-02-20T16:02:48;46.25;;;22.23;;
49890;SDS011;35780;55.568;37.492;2023-02-20T16:05:14;46.65;;;22.48;;
49890;SDS011;35780;55.568;37.492;2023-02-20T16:07:39;47.78;;;24.10;;
49890;SDS011;35780;55.568;37.492;2023-02-20T16:10:05;48.22;;;24.50;;
49890;SDS011;35780;55.568;37.492;2023-02-20T16:12:31;49.70;;;23.42;;
49890;SDS011;35780;55.568;37.492;2023-02-20T16:14:57;46.22;;;22.30;;
49890;SDS011;35780;55.568;37.492;2023-02-20T16:17:24;48.47;;;22.05;;
49890;SDS011;35780;55.568;37.492;2023-02-20T16:19:51;49.78;;;23.35;;
49890;SDS011;35780;55.568;37.492;2023-02-20T16:22:17;48.20;;;23.83;;
49890;SDS011;35780;55.568;37.492;2023-02-20T16:24:43;46.15;;;21.88;;
49890;SDS011;35780;55.568;37.492;2023-02-20T16:27:30;49.45;;;23.33;;
49890;SDS011;35780;55.568;37.492;2023-02-20T16:29:55;43.38;;;21.65;;
49890;SDS011;35780;55.568;37.492;2023-02-20T16:32:22;48.42;;;21.08;;
49890;SDS011;35780;55.568;37.492;2023-02-20T16:34:49;46.95;;;22.25;;
49890;SDS011;35780;55.568;37.492;2023-02-20T16:37:15;43.28;;;19.83;;
49890;SDS011;35780;55.568;37.492;2023-02-20T16:39:41;43.85;;;21.63;;
49890;SDS011;35780;55.568;37.492;2023-02-20T16:42:40;46.97;;;23.30;;
49890;SDS011;35780;55.568;37.492;2023-02-20T16:47:47;53.22;;;25.95;;
49890;SDS011;35780;55.568;37.492;2023-02-20T16:50:14;50.03;;;23.08;;
49890;SDS011;35780;55.568;37.492;2023-02-20T16:52:44;46.20;;;24.58;;
49890;SDS011;35780;55.568;37.492;2023-02-20T16:55:20;47.88;;;24.10;;
49890;SDS011;35780;55.568;37.492;2023-02-20T16:57:48;48.22;;;23.00;;
49890;SDS011;35780;55.568;37.492;2023-02-20T17:00:14;45.70;;;21.48;;
49890;SDS011;35780;55.568;37.492;2023-02-20T17:02:41;47.10;;;20.58;;
49890;SDS011;35780;55.568;37.492;2023-02-20T17:05:07;48.92;;;23.15;;
49890;SDS011;35780;55.568;37.492;2023-02-20T17:07:32;41.92;;;21.52;;
49890;SDS011;35780;55.568;37.492;2023-02-20T17:09:58;48.50;;;22.58;;
49890;SDS011;35780;55.568;37.492;2023-02-20T17:12:24;42.53;;;21.25;;
49890;SDS011;35780;55.568;37.492;2023-02-20T17:14:50;43.22;;;20.60;;
49890;SDS011;35780;55.568;37.492;2023-02-20T17:17:17;46.25;;;22.85;;